Time;durP1;ratioP1;P1;durP2;ratioP2;P2;SDS_P1;SDS_P2;PMS_P1;PMS_P2;Temp;Humidity;BMP_temperature;BMP_pressure;BME280_temperature;BME280_humidity;BME280_pressure;Samples;Min_cycle;Max_cycle;Signal;HPM_P1;HPM_P2
2023/10/22 00:03:05;;;;;;;442.70;73.13;;;11.30;1.00;;;;;;5036990;28;20223;-82
2023/10/22 00:08:52;;;;;;;353.87;56.83;;;11.30;1.00;;;;;;5034774;28;20195;-82
2023/10/22 00:14:47;;;;;;;2.70;1.53;;;11.30;1.00;;;;;;5035530;28;20237;-83
2023/10/22 00:23:57;;;;;;;323.00;52.90;;;11.20;1.00;;;;;;5035136;28;20968;-82
2023/10/22 00:29:53;;;;;;;323.00;52.00;;;11.20;1.00;;;;;;5032355;28;20180;-82
2023/10/22 00:39:32;;;;;;;297.00;47.37;;;11.30;1.00;;;;;;5037108;28;20429;-83
2023/10/22 00:45:20;;;;;;;188.67;42.20;;;11.30;1.00;;;;;;5044935;28;20424;-74
2023/10/22 00:47:50;;;;;;;495.17;82.27;;;11.40;1.00;;;;;;5047848;28;20434;-74
2023/10/22 00:50:16;;;;;;;505.07;77.43;;;11.20;1.00;;;;;;5048275;28;20499;-73
2023/10/22 00:52:43;;;;;;;160.93;27.30;;;11.20;1.00;;;;;;5036053;28;20549;-73
2023/10/22 00:55:13;;;;;;;452.97;74.07;;;11.20;1.00;;;;;;5037698;28;20596;-73
2023/10/22 00:57:44;;;;;;;435.70;68.33;;;11.10;1.00;;;;;;5045812;28;20429;-74
2023/10/22 01:00:13;;;;;;;336.80;58.03;;;11.10;1.00;;;;;;5038324;28;20794;-76
2023/10/22 01:02:39;;;;;;;172.20;37.63;;;11.00;1.00;;;;;;5044394;28;20504;-73
2023/10/22 01:05:07;;;;;;;9.70;2.43;;;10.90;1.00;;;;;;5042090;28;20430;-73
2023/10/22 01:07:33;;;;;;;52.63;9.80;;;10.90;1.00;;;;;;5038930;28;20521;-74
2023/10/22 01:09:59;;;;;;;468.50;72.17;;;10.90;1.00;;;;;;5041747;28;20426;-74
2023/10/22 01:12:33;;;;;;;412.47;65.50;;;10.90;1.00;;;;;;5033395;28;20457;-73
2023/10/22 01:14:59;;;;;;;412.10;65.37;;;;;;;;;;5034978;28;20259;-74
2023/10/22 01:17:25;;;;;;;341.27;54.60;;;10.80;1.00;;;;;;5050333;28;20441;-73
2023/10/22 01:19:51;;;;;;;134.47;22.17;;;10.80;1.00;;;;;;5036089;28;20457;-73
2023/10/22 01:22:17;;;;;;;326.97;56.07;;;10.80;1.00;;;;;;5045004;28;20229;-73
2023/10/22 01:24:43;;;;;;;318.00;55.40;;;;;;;;;;5043481;28;20183;-74
2023/10/22 01:27:08;;;;;;;209.87;38.77;;;10.80;1.00;;;;;;5043848;28;20909;-73
2023/10/22 01:29:34;;;;;;;230.37;41.23;;;10.80;1.00;;;;;;5047147;28;20437;-73
2023/10/22 01:38:50;;;;;;;163.70;46.17;;;10.90;1.00;;;;;;5040035;28;20506;-82
2023/10/22 01:41:51;;;;;;;135.90;44.20;;;10.90;1.00;;;;;;5025196;28;20438;-83
2023/10/22 01:44:26;;;;;;;95.27;37.67;;;10.90;1.00;;;;;;5036370;28;20439;-82
2023/10/22 01:46:52;;;;;;;75.23;32.77;;;10.90;1.00;;;;;;5034494;28;20465;-73
2023/10/22 01:49:18;;;;;;;132.13;41.37;;;11.00;1.00;;;;;;5036801;28;20450;-73
2023/10/22 01:51:44;;;;;;;161.07;45.70;;;11.00;1.00;;;;;;5036952;28;20270;-74
2023/10/22 01:54:10;;;;;;;107.20;37.43;;;11.00;1.00;;;;;;5056022;28;20237;-74
2023/10/22 01:56:36;;;;;;;128.03;41.03;;;10.90;1.00;;;;;;5042289;28;20906;-74
2023/10/22 01:59:01;;;;;;;153.17;43.93;;;10.90;1.00;;;;;;5046532;28;20176;-74
2023/10/22 02:08:11;;;;;;;429.47;67.47;;;10.90;1.00;;;;;;5022280;28;20433;-83
2023/10/22 02:27:26;;;;;;;4.70;1.10;;;10.60;1.00;;;;;;5019426;28;20449;-82
2023/10/22 02:30:26;;;;;;;137.97;36.43;;;10.60;1.00;;;;;;5043793;28;20465;-83
2023/10/22 02:32:52;;;;;;;348.63;57.47;;;10.60;1.00;;;;;;5042130;28;20234;-74
2023/10/22 02:35:17;;;;;;;6.77;1.60;;;10.60;1.00;;;;;;5034956;28;20462;-73
2023/10/22 02:37:43;;;;;;;6.30;1.63;;;10.60;1.00;;;;;;5036457;28;20176;-73
2023/10/22 02:40:09;;;;;;;11.77;2.17;;;10.60;1.00;;;;;;5044364;28;20258;-73
2023/10/22 02:42:35;;;;;;;1.87;1.10;;;10.70;1.00;;;;;;5031460;28;20714;-73
2023/10/22 02:45:00;;;;;;;17.57;2.60;;;10.70;1.00;;;;;;5027459;28;20518;-73
2023/10/22 02:47:26;;;;;;;5.03;1.20;;;10.70;1.00;;;;;;5038827;28;20184;-74
2023/10/22 02:50:04;;;;;;;11.53;2.17;;;10.80;1.00;;;;;;5033566;28;20188;-73
2023/10/22 02:52:29;;;;;;;3.73;1.33;;;10.80;1.00;;;;;;5043163;28;20587;-74
2023/10/22 02:54:56;;;;;;;321.90;56.93;;;10.80;1.00;;;;;;5038558;28;20484;-73
2023/10/22 02:57:22;;;;;;;519.47;87.17;;;10.80;1.00;;;;;;5041407;28;20702;-73
2023/10/22 02:59:48;;;;;;;15.40;4.67;;;10.90;1.00;;;;;;5031488;28;20523;-73
2023/10/22 03:05:41;;;;;;;231.77;39.57;;;10.90;1.00;;;;;;5015563;28;20164;-82
2023/10/22 03:11:29;;;;;;;284.27;48.43;;;11.00;1.00;;;;;;5049881;28;20421;-82
2023/10/22 03:14:32;;;;;;;3.13;0.97;;;10.90;1.00;;;;;;5037096;28;20490;-83
2023/10/22 03:16:58;;;;;;;182.57;36.43;;;10.90;1.00;;;;;;5029134;28;20180;-74
2023/10/22 03:19:24;;;;;;;2.10;0.90;;;10.80;1.00;;;;;;5037216;28;20442;-73
2023/10/22 03:21:50;;;;;;;8.83;0.90;;;10.90;1.00;;;;;;5044243;28;20180;-74
2023/10/22 03:24:17;;;;;;;93.70;19.93;;;10.90;1.00;;;;;;5034163;28;20461;-73
2023/10/22 03:26:45;;;;;;;259.23;50.27;;;10.90;1.00;;;;;;5033831;28;20202;-73
2023/10/22 03:29:11;;;;;;;173.53;38.87;;;10.90;1.00;;;;;;5037473;28;20480;-73
2023/10/22 03:31:37;;;;;;;2.00;0.83;;;10.90;1.00;;;;;;5042740;28;20522;-74
2023/10/22 03:34:03;;;;;;;4.53;1.13;;;10.90;1.00;;;;;;5047006;28;20188;-74
2023/10/22 03:36:29;;;;;;;8.47;1.00;;;10.80;1.00;;;;;;5032133;28;20665;-74
2023/10/22 03:38:55;;;;;;;215.63;44.43;;;10.80;1.00;;;;;;5035525;28;20260;-74
2023/10/22 03:41:20;;;;;;;10.43;2.20;;;10.70;1.00;;;;;;5047374;28;20522;-73
2023/10/22 03:43:46;;;;;;;4.60;1.20;;;10.70;1.00;;;;;;5022790;28;20181;-73
2023/10/22 03:46:14;;;;;;;5.03;1.00;;;10.60;1.00;;;;;;5043635;28;20245;-73
2023/10/22 03:48:40;;;;;;;4.90;1.07;;;10.60;1.00;;;;;;5035657;28;20575;-73
2023/10/22 03:51:06;;;;;;;6.03;1.00;;;10.50;1.00;;;;;;5053778;28;20410;-73
2023/10/22 03:53:31;;;;;;;6.87;0.97;;;10.60;1.00;;;;;;5033948;28;20693;-73
2023/10/22 03:55:57;;;;;;;8.33;1.80;;;10.50;1.00;;;;;;5031856;28;20515;-73
2023/10/22 03:58:25;;;;;;;6.00;1.60;;;10.60;1.00;;;;;;5034057;28;20565;-74
2023/10/22 04:00:53;;;;;;;6.50;1.53;;;10.50;1.00;;;;;;5029348;28;20620;-73
2023/10/22 04:06:40;;;;;;;2.10;0.90;;;10.40;1.00;;;;;;5034808;28;20505;-83
2023/10/22 04:12:31;;;;;;;6.00;1.23;;;10.40;1.00;;;;;;5026511;28;20358;-83
2023/10/22 04:14:58;;;;;;;5.00;0.80;;;10.40;1.00;;;;;;5027185;28;20431;-84
2023/10/22 04:24:08;;;;;;;3.10;1.27;;;10.40;1.00;;;;;;5032705;28;20558;-83
2023/10/22 04:30:04;;;;;;;4.27;1.70;;;10.40;1.00;;;;;;5033363;28;20414;-83
2023/10/22 04:33:20;;;;;;;5.70;1.30;;;10.40;1.00;;;;;;5031961;28;20975;-83
2023/10/22 04:35:56;;;;;;;4.20;1.00;;;10.50;1.00;;;;;;5031692;28;20437;-83
2023/10/22 04:41:44;;;;;;;149.87;33.00;;;10.50;1.00;;;;;;5032552;28;20781;-84
2023/10/22 04:44:21;;;;;;;239.63;40.93;;;10.60;1.00;;;;;;5028550;28;20411;-83
2023/10/22 04:47:08;;;;;;;3.73;1.10;;;10.60;1.00;;;;;;5027069;28;20646;-85
2023/10/22 04:49:56;;;;;;;2.23;0.70;;;10.70;1.00;;;;;;5032781;28;20433;-86
2023/10/22 04:56:20;;;;;;;312.33;50.43;;;11.00;1.00;;;;;;5025670;28;20414;-84
2023/10/22 04:59:26;;;;;;;168.53;36.37;;;11.00;1.00;;;;;;5015640;28;20463;-84
2023/10/22 05:05:14;;;;;;;4.40;1.00;;;11.20;1.00;;;;;;5023528;28;20495;-82
2023/10/22 05:11:05;;;;;;;0.87;0.80;;;11.30;1.00;;;;;;5030565;28;20376;-83
2023/10/22 05:17:26;;;;;;;2.13;0.93;;;11.50;1.00;;;;;;5022817;28;20417;-83
2023/10/22 05:23:14;;;;;;;4.97;1.13;;;11.60;1.00;;;;;;5022886;28;20800;-83
2023/10/22 05:26:09;;;;;;;146.37;40.43;;;11.70;1.00;;;;;;5036522;28;20418;-83
2023/10/22 05:28:56;;;;;;;2.63;0.77;;;11.70;1.00;;;;;;5047191;28;20848;-83
2023/10/22 05:31:44;;;;;;;27.03;15.27;;;11.70;1.00;;;;;;5031076;28;21009;-83
2023/10/22 05:34:10;;;;;;;2.57;0.90;;;11.80;1.00;;;;;;5050001;28;20434;-83
2023/10/22 05:36:35;;;;;;;11.27;1.57;;;11.80;1.00;;;;;;5034985;28;20572;-83
2023/10/22 05:39:02;;;;;;;58.73;29.73;;;11.90;1.00;;;;;;5025309;28;20179;-83
2023/10/22 05:41:33;;;;;;;64.60;33.93;;;11.90;1.00;;;;;;5035093;28;20437;-83
2023/10/22 05:44:02;;;;;;;48.53;27.30;;;11.90;1.00;;;;;;5038469;28;20442;-83
2023/10/22 05:49:50;;;;;;;55.90;30.07;;;11.90;1.00;;;;;;5036002;28;20948;-83
2023/10/22 05:55:37;;;;;;;84.70;36.87;;;12.00;1.00;;;;;;5044994;28;20262;-82
2023/10/22 05:58:56;;;;;;;35.70;21.00;;;12.00;1.00;;;;;;5029690;28;20466;-83
2023/10/22 06:02:02;;;;;;;49.17;25.37;;;12.10;1.00;;;;;;5035322;28;20246;-83
2023/10/22 06:15:03;;;;;;;28.20;19.13;;;12.10;1.00;;;;;;5031109;28;20438;-85
2023/10/22 06:24:14;;;;;;;13.43;2.40;;;12.10;1.00;;;;;;5047555;28;20405;-86
2023/10/22 06:26:56;;;;;;;4.33;1.10;;;12.10;1.00;;;;;;5037963;28;20419;-90
2023/10/22 06:29:32;;;;;;;3.93;1.10;;;12.00;1.00;;;;;;5031720;28;20431;-86
2023/10/22 06:35:33;;;;;;;7.60;1.40;;;12.10;1.00;;;;;;5029553;28;20441;-89
2023/10/22 06:38:03;;;;;;;6.07;1.30;;;12.20;1.00;;;;;;5024157;28;20786;-89
2023/10/22 06:44:42;;;;;;;3.17;1.30;;;12.10;1.00;;;;;;5036441;28;20413;-80
2023/10/22 06:47:20;;;;;;;5.00;0.80;;;12.20;1.00;;;;;;5032705;28;20406;-83
2023/10/22 06:53:39;;;;;;;4.40;1.20;;;12.30;1.00;;;;;;5040768;28;20457;-83
2023/10/22 06:56:56;;;;;;;4.63;1.10;;;12.40;1.00;;;;;;5039883;28;20486;-83
2023/10/22 07:06:06;;;;;;;7.93;1.13;;;13.00;1.00;;;;;;5038954;28;20410;-83
2023/10/22 07:08:50;;;;;;;6.23;1.60;;;13.20;1.00;;;;;;5028931;28;20409;-82
2023/10/22 07:11:35;;;;;;;9.00;2.00;;;13.50;1.00;;;;;;5030541;28;20180;-82
2023/10/22 07:17:33;;;;;;;9.07;1.60;;;13.70;1.00;;;;;;5027288;28;20951;-82
2023/10/22 07:20:12;;;;;;;2.83;1.30;;;13.70;1.00;;;;;;5018847;28;20416;-82
2023/10/22 07:23:20;;;;;;;6.67;1.43;;;13.80;1.00;;;;;;5042574;28;20931;-82
2023/10/22 07:25:46;;;;;;;4.77;1.10;;;13.90;1.00;;;;;;5027507;28;20447;-82
2023/10/22 07:31:39;;;;;;;8.53;1.40;;;14.00;1.00;;;;;;5025810;28;20402;-82
2023/10/22 07:40:50;;;;;;;7.27;1.13;;;;;;;;;;5052647;28;20409;-83
2023/10/22 07:44:09;;;;;;;5.13;1.40;;;14.00;1.00;;;;;;5026102;28;20912;-83
2023/10/22 07:47:26;;;;;;;2.50;0.90;;;14.00;1.00;;;;;;5030190;28;20443;-83
2023/10/22 07:49:57;;;;;;;8.70;1.10;;;;;;;;;;5028085;28;20508;-84
2023/10/22 08:02:54;;;;;;;10.47;1.67;;;14.30;1.00;;;;;;5029317;28;20501;-83
2023/10/22 08:05:38;;;;;;;11.30;1.40;;;14.60;1.00;;;;;;5036075;28;20433;-85
2023/10/22 08:11:26;;;;;;;9.63;1.87;;;14.80;1.00;;;;;;5021855;28;20785;-85
2023/10/22 08:14:38;;;;;;;4.40;0.90;;;14.90;1.00;;;;;;5036096;28;20454;-85
2023/10/22 08:17:38;;;;;;;5.00;1.20;;;15.10;1.00;;;;;;5029756;28;20636;-85
2023/10/22 08:23:26;;;;;;;290.80;93.70;;;15.20;1.00;;;;;;5025930;28;20920;-71
2023/10/22 08:25:52;;;;;;;9.43;1.83;;;15.20;1.00;;;;;;5035392;28;20533;-71
2023/10/22 08:28:17;;;;;;;12.57;2.20;;;15.10;1.00;;;;;;5027949;28;20193;-71
2023/10/22 08:30:45;;;;;;;14.07;2.10;;;15.10;1.00;;;;;;5043004;28;20852;-71
2023/10/22 08:33:10;;;;;;;429.17;122.83;;;15.20;1.00;;;;;;5027716;28;20200;-70
2023/10/22 08:35:36;;;;;;;298.03;103.77;;;15.50;1.00;;;;;;5033245;28;20522;-74
2023/10/22 08:38:02;;;;;;;6.50;1.70;;;15.30;1.00;;;;;;5027412;28;20181;-74
2023/10/22 08:40:27;;;;;;;6.40;1.83;;;15.40;1.00;;;;;;5028195;28;20180;-74
2023/10/22 08:42:54;;;;;;;4.23;1.20;;;15.60;1.00;;;;;;5035761;28;20207;-74
2023/10/22 08:45:20;;;;;;;445.23;139.93;;;15.60;1.00;;;;;;5042531;28;20193;-74
2023/10/22 08:47:51;;;;;;;3.60;1.30;;;15.80;1.00;;;;;;5041539;28;20531;-74
2023/10/22 08:50:23;;;;;;;11.03;1.17;;;15.50;1.00;;;;;;5040152;28;20193;-72
2023/10/22 08:52:49;;;;;;;283.53;99.03;;;15.40;1.00;;;;;;5037435;28;20450;-72
2023/10/22 08:55:14;;;;;;;9.50;4.97;;;15.40;1.00;;;;;;5051618;28;20442;-71
2023/10/22 08:57:41;;;;;;;10.20;1.60;;;15.50;1.00;;;;;;5032847;28;20423;-71
2023/10/22 09:00:09;;;;;;;13.60;1.30;;;15.30;1.00;;;;;;5043323;28;20168;-70
2023/10/22 09:02:42;;;;;;;8.43;1.40;;;15.30;1.00;;;;;;5036955;28;20410;-83
2023/10/22 09:05:10;;;;;;;7.17;1.13;;;15.10;1.00;;;;;;5039735;28;20949;-85
2023/10/22 09:08:14;;;;;;;5.77;1.73;;;15.10;1.00;;;;;;5045978;28;20434;-89
2023/10/22 09:14:57;;;;;;;5.87;1.27;;;15.10;1.00;;;;;;5018124;28;20961;-89
2023/10/22 09:17:39;;;;;;;129.10;60.33;;;15.20;1.00;;;;;;5056223;28;20445;-89
2023/10/22 09:20:24;;;;;;;242.07;91.60;;;;;;;;;;5034502;28;20409;-89
2023/10/22 09:32:49;;;;;;;6.90;1.20;;;14.90;1.00;;;;;;5050945;28;20476;-90
2023/10/22 09:35:38;;;;;;;6.73;1.27;;;14.90;1.00;;;;;;5049518;28;20893;-90
2023/10/22 09:38:20;;;;;;;5.80;1.67;;;14.90;1.00;;;;;;5037985;28;20173;-83
2023/10/22 09:41:03;;;;;;;4.80;1.43;;;;;;;;;;5046900;28;20895;-83
2023/10/22 09:43:39;;;;;;;6.63;1.10;;;15.00;1.00;;;;;;5043147;28;20874;-83
2023/10/22 09:49:32;;;;;;;6.77;1.20;;;15.00;1.00;;;;;;5025949;28;20385;-83
2023/10/22 09:52:01;;;;;;;9.83;3.07;;;15.30;1.00;;;;;;5046216;28;20444;-83
2023/10/22 09:54:37;;;;;;;8.23;1.43;;;15.40;1.00;;;;;;5036142;28;20489;-84
2023/10/22 09:57:16;;;;;;;5.33;1.30;;;15.60;1.00;;;;;;5046644;28;20446;-83
2023/10/22 10:00:12;;;;;;;6.20;1.10;;;15.60;1.00;;;;;;5030436;28;20500;-83
2023/10/22 10:03:26;;;;;;;5.00;1.30;;;15.90;1.00;;;;;;5027544;28;20789;-83
2023/10/22 10:06:39;;;;;;;5.47;1.03;;;15.90;1.00;;;;;;5059947;28;20434;-89
2023/10/22 10:09:23;;;;;;;5.33;1.00;;;16.00;1.00;;;;;;5034381;28;20447;-89
2023/10/22 10:12:38;;;;;;;11.57;1.37;;;16.00;1.00;;;;;;5051295;28;20934;-89
2023/10/22 10:15:34;;;;;;;6.67;1.37;;;16.00;1.00;;;;;;5030306;28;20424;-88
2023/10/22 10:18:06;;;;;;;3.70;0.73;;;16.10;1.00;;;;;;5047040;28;20434;-88
2023/10/22 10:20:35;;;;;;;5.13;0.83;;;16.30;1.00;;;;;;5032147;28;20515;-88
2023/10/22 10:23:04;;;;;;;13.03;1.77;;;16.40;1.00;;;;;;5052002;28;20470;-81
2023/10/22 10:25:32;;;;;;;11.83;1.40;;;16.60;1.00;;;;;;5033179;28;20432;-82
2023/10/22 10:28:10;;;;;;;6.03;1.37;;;16.50;1.00;;;;;;5034430;28;20413;-83
2023/10/22 10:31:29;;;;;;;7.47;1.53;;;16.60;1.00;;;;;;5051692;28;20453;-82
2023/10/22 10:34:25;;;;;;;3.03;1.20;;;16.70;1.00;;;;;;4976265;28;20458;-83
2023/10/22 10:37:14;;;;;;;4.90;1.10;;;16.50;1.00;;;;;;4993552;28;20454;-89
2023/10/22 10:43:01;;;;;;;2.67;1.20;;;16.50;1.00;;;;;;4985251;28;20521;-90
2023/10/22 10:46:08;;;;;;;8.33;1.50;;;16.40;1.00;;;;;;4973067;28;20438;-89
2023/10/22 10:49:08;;;;;;;5.90;1.33;;;16.70;1.00;;;;;;4994370;28;20187;-88
2023/10/22 10:52:08;;;;;;;5.40;1.20;;;16.70;1.00;;;;;;4992896;28;20454;-89
2023/10/22 10:55:14;;;;;;;4.60;1.10;;;17.00;1.00;;;;;;4971637;28;20968;-89
2023/10/22 10:58:20;;;;;;;5.80;1.50;;;17.00;1.00;;;;;;4990614;28;20438;-88
2023/10/22 11:01:03;;;;;;;4.93;0.90;;;17.20;1.00;;;;;;4977011;28;20442;-88
2023/10/22 11:03:28;;;;;;;17.23;1.20;;;17.00;1.00;;;;;;4992770;28;20431;-88
2023/10/22 11:06:03;;;;;;;8.80;1.13;;;17.10;1.00;;;;;;4974759;28;20913;-88
2023/10/22 11:08:45;;;;;;;7.57;1.40;;;17.10;1.00;;;;;;4976433;28;20171;-81
2023/10/22 11:12:05;;;;;;;4.83;1.20;;;17.00;1.00;;;;;;5029204;28;20787;-81
2023/10/22 11:14:58;;;;;;;4.77;1.53;;;16.90;1.00;;;;;;5033081;28;20796;-82
2023/10/22 11:18:09;;;;;;;12.93;1.60;;;16.90;1.00;;;;;;5048744;28;20455;-82
2023/10/22 11:20:37;;;;;;;9.43;1.30;;;17.30;1.00;;;;;;5029435;28;20488;-82
2023/10/22 11:23:21;;;;;;;4.30;1.00;;;17.30;1.00;;;;;;5028233;28;20415;-89
2023/10/22 11:26:08;;;;;;;13.30;1.50;;;17.10;1.00;;;;;;5043374;28;20404;-88
2023/10/22 11:28:39;;;;;;;4.30;1.33;;;17.00;1.00;;;;;;5029690;28;20423;-88
2023/10/22 11:31:38;;;;;;;7.33;1.47;;;16.80;1.00;;;;;;5027540;28;20441;-89
2023/10/22 11:34:21;;;;;;;4.33;2.03;;;16.70;1.00;;;;;;5030047;28;20452;-89
2023/10/22 11:37:39;;;;;;;2.90;0.90;;;16.80;1.00;;;;;;5028652;28;20484;-89
2023/10/22 11:40:39;;;;;;;2.50;1.13;;;17.10;1.00;;;;;;5027542;28;20432;-89
2023/10/22 11:43:43;;;;;;;5.83;1.20;;;17.20;1.00;;;;;;5026466;28;20803;-89
2023/10/22 11:46:09;;;;;;;2.33;1.13;;;17.10;1.00;;;;;;5028385;28;20447;-88
2023/10/22 11:49:08;;;;;;;2.87;0.87;;;17.30;1.00;;;;;;5029030;28;20442;-88
2023/10/22 11:51:44;;;;;;;3.30;1.27;;;17.30;1.00;;;;;;5029321;28;20192;-87
2023/10/22 11:57:39;;;;;;;6.97;1.50;;;17.20;1.00;;;;;;5030870;28;20967;-86
2023/10/22 12:00:38;;;;;;;2.40;1.10;;;16.90;1.00;;;;;;5025027;28;20423;-87
2023/10/22 12:03:56;;;;;;;6.50;1.63;;;17.00;1.00;;;;;;5041018;28;20429;-87
2023/10/22 12:06:39;;;;;;;47.43;23.13;;;17.00;1.00;;;;;;5024024;28;21000;-86
2023/10/22 12:09:09;;;;;;;335.00;138.80;;;17.10;1.00;;;;;;5047403;28;20431;-87
2023/10/22 12:11:39;;;;;;;391.60;154.50;;;17.00;1.00;;;;;;5028777;28;20404;-86
2023/10/22 12:14:09;;;;;;;409.30;152.07;;;17.00;1.00;;;;;;5035105;28;20480;-87
2023/10/22 12:16:39;;;;;;;430.00;160.33;;;16.90;1.00;;;;;;5035412;28;20422;-87
2023/10/22 12:19:39;;;;;;;538.17;169.97;;;17.00;1.00;;;;;;5031465;28;20532;-86
2023/10/22 12:22:38;;;;;;;455.53;159.90;;;16.80;1.00;;;;;;5035193;28;20947;-87
2023/10/22 12:25:09;;;;;;;62.73;51.87;;;16.70;1.00;;;;;;5024428;28;20429;-87
2023/10/22 12:27:39;;;;;;;7.80;2.30;;;16.50;1.00;;;;;;5023843;28;20819;-87
2023/10/22 12:30:09;;;;;;;119.83;64.10;;;16.40;1.00;;;;;;5015362;28;20451;-87
2023/10/22 12:32:39;;;;;;;144.73;84.43;;;16.40;1.00;;;;;;5029151;28;20438;-88
2023/10/22 12:35:39;;;;;;;300.63;128.07;;;16.50;1.00;;;;;;5027791;28;20421;-88
2023/10/22 12:38:09;;;;;;;170.30;97.93;;;16.30;1.00;;;;;;5030686;28;21058;-85
2023/10/22 12:40:56;;;;;;;162.90;86.67;;;16.40;1.00;;;;;;5021860;28;20406;-85
2023/10/22 12:43:39;;;;;;;494.27;160.43;;;16.50;1.00;;;;;;5038836;28;20459;-84
2023/10/22 12:46:09;;;;;;;241.47;123.27;;;16.50;1.00;;;;;;5032990;28;20930;-85
2023/10/22 12:48:39;;;;;;;299.07;127.43;;;16.50;1.00;;;;;;5032697;28;20440;-84
2023/10/22 12:51:09;;;;;;;134.83;77.20;;;16.60;1.00;;;;;;5025871;28;20433;-83
2023/10/22 12:53:46;;;;;;;270.47;116.50;;;16.60;1.00;;;;;;5026575;28;21053;-84
2023/10/22 12:59:39;;;;;;;125.57;74.07;;;16.60;1.00;;;;;;5030101;28;20419;-83
2023/10/22 13:02:09;;;;;;;53.07;38.10;;;16.50;1.00;;;;;;5028179;28;20402;-82
2023/10/22 13:04:35;;;;;;;136.03;82.37;;;16.40;1.00;;;;;;5028930;28;20931;-82
2023/10/22 13:07:09;;;;;;;104.50;68.83;;;16.60;1.00;;;;;;5044706;28;20465;-82
2023/10/22 13:09:51;;;;;;;74.10;52.90;;;16.60;1.00;;;;;;5041447;28;20552;-83
2023/10/22 13:12:29;;;;;;;2.93;1.47;;;16.50;1.00;;;;;;5027866;28;20967;-83
2023/10/22 13:14:59;;;;;;;13.13;2.37;;;16.50;1.00;;;;;;5030513;28;20432;-83
2023/10/22 13:17:24;;;;;;;10.87;1.83;;;16.50;1.00;;;;;;5020048;28;20426;-82
2023/10/22 13:20:15;;;;;;;4.43;1.70;;;16.40;1.00;;;;;;5044262;28;20791;-82
2023/10/22 13:23:09;;;;;;;5.77;1.43;;;16.30;1.00;;;;;;5027342;28;20211;-82
2023/10/22 13:29:38;;;;;;;9.10;1.87;;;16.30;1.00;;;;;;5024737;28;20466;-83
2023/10/22 13:32:04;;;;;;;9.80;1.50;;;16.50;1.00;;;;;;5022447;28;20494;-83
2023/10/22 13:34:39;;;;;;;10.03;2.33;;;16.60;1.00;;;;;;5027591;28;20520;-83
2023/10/22 13:37:09;;;;;;;5.93;1.57;;;16.60;1.00;;;;;;5034423;28;20177;-83
2023/10/22 13:39:39;;;;;;;3.27;1.47;;;16.60;1.00;;;;;;5040380;28;20409;-88
2023/10/22 13:42:05;;;;;;;4.43;1.50;;;16.60;1.00;;;;;;5034716;28;20464;-89
2023/10/22 13:45:09;;;;;;;6.20;1.40;;;16.60;1.00;;;;;;5046664;28;20406;-86
2023/10/22 13:47:39;;;;;;;5.70;1.30;;;16.60;1.00;;;;;;5033193;28;20193;-87
2023/10/22 13:50:10;;;;;;;4.30;1.50;;;16.40;1.00;;;;;;5030182;28;20396;-87
2023/10/22 13:52:36;;;;;;;8.67;1.77;;;16.50;1.00;;;;;;5036909;28;20464;-86
2023/10/22 13:55:09;;;;;;;9.17;2.13;;;16.60;1.00;;;;;;5036182;28;20421;-83
2023/10/22 13:57:39;;;;;;;3.90;1.70;;;16.70;1.00;;;;;;5038171;28;20178;-84
2023/10/22 14:00:12;;;;;;;3.93;1.33;;;16.70;1.00;;;;;;5043542;28;20419;-85
2023/10/22 14:02:39;;;;;;;9.60;1.47;;;16.70;1.00;;;;;;5035954;28;20433;-85
2023/10/22 14:05:09;;;;;;;8.70;1.10;;;16.90;1.00;;;;;;5035262;28;20398;-84
2023/10/22 14:07:40;;;;;;;6.60;1.20;;;16.80;1.00;;;;;;5035122;28;20468;-83
2023/10/22 14:10:41;;;;;;;3.50;1.13;;;16.70;1.00;;;;;;5036159;28;20425;-87
2023/10/22 14:13:09;;;;;;;8.57;1.50;;;16.60;1.00;;;;;;5036682;28;20435;-89
2023/10/22 14:15:39;;;;;;;6.17;1.23;;;16.40;1.00;;;;;;5035542;28;20438;-89
2023/10/22 14:21:41;;;;;;;5.90;1.10;;;16.40;1.00;;;;;;5037342;28;20556;-88
2023/10/22 14:27:29;;;;;;;3.23;1.10;;;16.40;1.00;;;;;;5032413;28;20377;-83
2023/10/22 14:37:09;;;;;;;8.23;1.50;;;16.30;1.00;;;;;;5016044;28;20480;-83
2023/10/22 14:40:20;;;;;;;8.67;2.03;;;16.30;1.00;;;;;;5032462;28;20483;-84
2023/10/22 14:46:09;;;;;;;2.77;1.40;;;16.40;1.00;;;;;;5042138;28;20915;-85
2023/10/22 14:49:26;;;;;;;8.23;1.57;;;16.50;1.00;;;;;;5028067;28;20434;-85
2023/10/22 14:55:38;;;;;;;4.80;1.33;;;16.50;1.00;;;;;;5035232;28;20427;-88
2023/10/22 14:58:04;;;;;;;6.63;1.33;;;16.50;1.00;;;;;;5030214;28;20947;-89
2023/10/22 15:00:50;;;;;;;3.17;1.20;;;16.60;1.00;;;;;;5048406;28;20511;-88
2023/10/22 15:03:16;;;;;;;5.97;1.77;;;16.50;1.00;;;;;;5043625;28;20213;-89
2023/10/22 15:05:48;;;;;;;5.13;1.50;;;16.60;1.00;;;;;;5038773;28;20515;-89
2023/10/22 15:09:08;;;;;;;1.30;0.87;;;16.60;1.00;;;;;;5043816;28;20906;-89
2023/10/22 15:12:26;;;;;;;1.53;0.90;;;16.50;1.00;;;;;;5024201;28;20424;-89
2023/10/22 15:14:59;;;;;;;4.93;1.20;;;16.20;1.00;;;;;;5041879;28;20460;-88
2023/10/22 15:17:24;;;;;;;8.10;1.00;;;16.10;1.00;;;;;;5034779;28;20428;-88
2023/10/22 15:19:58;;;;;;;4.40;1.30;;;16.10;1.00;;;;;;5032061;28;20921;-88
2023/10/22 15:23:02;;;;;;;6.40;1.70;;;16.10;1.00;;;;;;5034225;28;20209;-89
2023/10/22 15:28:57;;;;;;;3.40;1.33;;;16.00;1.00;;;;;;5034122;28;20452;-82
2023/10/22 15:31:44;;;;;;;5.33;0.97;;;16.00;1.00;;;;;;5035205;28;20509;-81
2023/10/22 15:40:59;;;;;;;1.63;1.00;;;16.00;1.00;;;;;;5025271;28;20425;-82
2023/10/22 15:46:49;;;;;;;6.10;1.37;;;16.00;1.00;;;;;;5035151;28;20389;-82
2023/10/22 15:49:27;;;;;;;4.53;1.10;;;16.00;1.00;;;;;;5054002;28;20366;-82
2023/10/22 15:52:20;;;;;;;8.60;1.07;;;16.10;1.00;;;;;;5032106;28;20851;-82
2023/10/22 15:58:08;;;;;;;2.63;1.13;;;16.10;1.00;;;;;;5014812;28;20419;-90
2023/10/22 16:00:45;;;;;;;5.40;0.90;;;16.00;1.00;;;;;;5033011;28;20432;-89
2023/10/22 16:03:39;;;;;;;4.30;1.03;;;15.90;1.00;;;;;;5032550;28;20169;-89
2023/10/22 16:06:50;;;;;;;2.93;1.00;;;15.80;1.00;;;;;;5023321;28;20403;-88
2023/10/22 16:09:38;;;;;;;7.73;1.40;;;15.80;1.00;;;;;;5022776;28;20456;-87
2023/10/22 16:12:44;;;;;;;1.70;0.93;;;15.80;1.00;;;;;;5027315;28;20478;-88
2023/10/22 16:18:39;;;;;;;1.73;0.73;;;15.70;1.00;;;;;;5036587;28;20761;-88
2023/10/22 16:27:48;;;;;;;4.53;1.10;;;15.60;1.00;;;;;;5026729;28;20433;-81
2023/10/22 16:33:45;;;;;;;1.83;0.90;;;15.50;1.00;;;;;;5040750;28;20235;-82
2023/10/22 16:36:15;;;;;;;414.70;117.67;;;15.40;1.00;;;;;;5045776;28;20504;-82
2023/10/22 16:38:57;;;;;;;5.07;1.07;;;15.40;1.00;;;;;;5033265;28;20428;-82
2023/10/22 16:41:27;;;;;;;8.90;3.93;;;15.30;1.00;;;;;;5031916;28;20430;-87
2023/10/22 16:44:26;;;;;;;2.20;0.83;;;15.30;1.00;;;;;;5025470;28;20471;-87
2023/10/22 16:46:52;;;;;;;3.43;1.17;;;15.20;1.00;;;;;;5030534;28;21013;-86
2023/10/22 16:52:40;;;;;;;1.70;0.87;;;15.00;1.00;;;;;;5039683;28;20833;-86
2023/10/22 16:55:57;;;;;;;5.13;1.10;;;15.00;1.00;;;;;;5047223;28;20411;-86
2023/10/22 16:58:33;;;;;;;465.87;127.17;;;14.90;1.00;;;;;;5042440;28;20184;-87
2023/10/22 17:05:09;;;;;;;5.77;1.07;;;14.90;1.00;;;;;;5046300;28;20397;-87
2023/10/22 17:14:18;;;;;;;5.07;1.17;;;14.80;1.00;;;;;;5016674;28;20477;-87
2023/10/22 17:17:03;;;;;;;3.00;0.80;;;14.80;1.00;;;;;;5045040;28;20800;-87
2023/10/22 17:29:34;;;;;;;2.83;0.80;;;14.70;1.00;;;;;;5034785;28;20431;-83
2023/10/22 17:32:26;;;;;;;5.70;1.17;;;14.70;1.00;;;;;;5037908;28;20466;-81
2023/10/22 17:38:14;;;;;;;3.90;1.13;;;14.70;1.00;;;;;;5037039;28;20417;-83
2023/10/22 17:40:45;;;;;;;8.33;1.67;;;14.80;1.00;;;;;;5051630;28;20402;-83
2023/10/22 17:50:45;;;;;;;3.70;1.00;;;14.80;1.00;;;;;;5025552;28;21018;-90
2023/10/22 17:54:00;;;;;;;6.53;1.60;;;14.80;1.00;;;;;;5016079;28;20473;-89
2023/10/22 18:00:03;;;;;;;7.20;1.27;;;14.70;1.00;;;;;;5037311;28;20454;-81
2023/10/22 18:05:51;;;;;;;4.40;1.67;;;14.70;1.00;;;;;;5041460;28;20433;-81
2023/10/22 18:15:00;;;;;;;10.70;1.70;;;14.70;1.00;;;;;;5056419;28;20377;-89
2023/10/22 18:20:47;;;;;;;4.33;1.00;;;14.60;1.00;;;;;;5016929;28;20195;-90
2023/10/22 18:26:51;;;;;;;2.20;0.87;;;14.50;1.00;;;;;;5043640;28;20397;-90
2023/10/22 18:29:21;;;;;;;3.70;1.23;;;14.40;1.00;;;;;;5031708;28;20416;-89
2023/10/22 18:32:08;;;;;;;4.37;1.30;;;14.40;1.00;;;;;;5029202;28;20426;-90
2023/10/22 18:38:21;;;;;;;387.03;91.73;;;14.40;1.00;;;;;;5016304;28;20408;-90
2023/10/22 18:44:21;;;;;;;7.30;1.70;;;14.20;1.00;;;;;;5028742;28;20475;-90
2023/10/22 18:53:31;;;;;;;6.53;1.07;;;14.10;1.00;;;;;;5035534;28;20482;-90
2023/10/22 18:56:03;;;;;;;11.80;1.70;;;14.70;1.00;;;;;;5038577;28;20401;-90
2023/10/22 19:01:51;;;;;;;227.70;59.33;;;13.90;1.00;;;;;;5037820;28;20413;-90
2023/10/22 19:07:44;;;;;;;9.30;1.30;;;13.70;1.00;;;;;;5055119;28;20208;-90
2023/10/22 19:24:15;;;;;;;5.87;1.40;;;13.10;1.00;;;;;;5036733;28;21009;-82
2023/10/22 19:26:45;;;;;;;13.77;4.10;;;13.00;1.00;;;;;;5029625;28;20436;-81
2023/10/22 19:29:11;;;;;;;19.00;2.67;;;12.80;1.00;;;;;;5031113;28;20455;-72